Time;durP1;ratioP1;P1;durP2;ratioP2;P2;SDS_P1;SDS_P2;PMS_P1;PMS_P2;Temp;Humidity;BMP_temperature;BMP_pressure;BME280_temperature;BME280_humidity;BME280_pressure;Samples;Min_cycle;Max_cycle;Signal;HPM_P1;HPM_P2
2022/07/14 00:00:57;;;;;;;1999.90;999.90;;;;;;;22.93;92.10;95679.47;5117514;28;20187;-63
2022/07/14 00:03:22;;;;;;;1999.90;999.90;;;;;;;22.91;92.39;95679.19;5117222;28;20651;-64
2022/07/14 00:05:48;;;;;;;1999.90;999.90;;;;;;;22.93;91.78;95685.03;5117844;28;20203;-64
2022/07/14 00:08:13;;;;;;;1999.90;999.90;;;;;;;22.91;92.17;95677.16;5117632;28;20610;-47
2022/07/14 00:10:38;;;;;;;1999.90;999.90;;;;;;;22.88;93.33;95677.34;5117436;28;20263;-60
2022/07/14 00:13:04;;;;;;;1999.90;999.90;;;;;;;22.85;90.64;95672.72;5117159;28;20179;-61
2022/07/14 00:15:31;;;;;;;1999.90;999.90;;;;;;;22.83;89.45;95669.66;5117203;28;20194;-60
2022/07/14 00:17:58;;;;;;;1999.90;999.90;;;;;;;22.83;88.88;95675.22;5117154;28;20680;-60
2022/07/14 00:20:23;;;;;;;1999.90;999.90;;;;;;;22.84;88.32;95665.63;5117485;28;20355;-61
2022/07/14 00:22:49;;;;;;;1999.90;999.90;;;;;;;22.83;87.27;95664.09;5116812;28;20230;-60
2022/07/14 00:25:14;;;;;;;1999.90;999.90;;;;;;;22.83;87.28;95666.88;5117009;28;20207;-60
2022/07/14 00:27:40;;;;;;;1999.90;999.90;;;;;;;22.85;87.10;95667.16;5116954;28;20186;-52
2022/07/14 00:30:06;;;;;;;1999.90;999.90;;;;;;;22.85;86.80;95656.00;5116971;28;20187;-48
2022/07/14 00:32:33;;;;;;;1999.90;999.90;;;;;;;22.78;87.34;95661.94;5117100;28;20250;-53
2022/07/14 00:34:59;;;;;;;1999.90;999.90;;;;;;;22.79;87.46;95652.34;5116864;28;20193;-49
2022/07/14 00:37:24;;;;;;;1999.90;999.90;;;;;;;22.78;87.27;95643.22;5116896;28;20183;-50
2022/07/14 00:39:56;;;;;;;1999.90;999.90;;;;;;;22.77;86.76;95650.03;5116796;28;20186;-53
2022/07/14 00:42:38;;;;;;;1999.90;999.90;;;;;;;22.73;87.46;95643.88;5116974;28;20183;-60
2022/07/14 00:45:07;;;;;;;1999.90;999.90;;;;;;;22.71;87.68;95640.00;5116923;27;20203;-60
2022/07/14 00:47:33;;;;;;;1999.90;999.90;;;;;;;22.74;87.35;95639.06;5115970;28;20186;-60
2022/07/14 00:49:59;;;;;;;1999.90;999.90;;;;;;;22.75;88.14;95643.38;5116756;28;20190;-60
2022/07/14 00:52:26;;;;;;;1999.90;999.90;;;;;;;22.72;87.74;95638.78;5117217;28;20204;-60
2022/07/14 00:54:52;;;;;;;1999.90;999.90;;;;;;;22.70;87.25;95649.63;5117261;28;20187;-60
2022/07/14 00:57:19;;;;;;;1999.90;999.90;;;;;;;22.72;87.26;95647.16;5096283;28;20661;-60
2022/07/14 00:59:45;;;;;;;1999.90;999.90;;;;;;;22.69;86.25;95648.09;5096228;28;20199;-61
2022/07/14 01:02:11;;;;;;;1999.90;999.90;;;;;;;22.69;86.21;95653.66;5095946;28;20195;-48
2022/07/14 01:04:36;;;;;;;1999.90;999.90;;;;;;;22.70;86.91;95649.63;5096077;28;20258;-61
2022/07/14 01:07:02;;;;;;;1999.90;999.90;;;;;;;22.74;87.42;95650.22;5096261;28;20179;-61
2022/07/14 01:09:28;;;;;;;1999.90;999.90;;;;;;;22.72;86.97;95647.91;5096348;28;20206;-62
2022/07/14 01:11:53;;;;;;;1999.90;999.90;;;;;;;22.73;86.86;95637.53;5095937;28;20183;-63
2022/07/14 01:14:19;;;;;;;1999.90;999.90;;;;;;;22.71;88.08;95640.00;5095941;28;20187;-62
2022/07/14 01:16:44;;;;;;;1999.90;999.90;;;;;;;22.73;87.05;95648.69;5095784;28;20184;-61
2022/07/14 01:19:10;;;;;;;1999.90;999.90;;;;;;;22.72;88.10;95647.16;5096017;28;20176;-59
2022/07/14 01:21:35;;;;;;;1999.90;999.90;;;;;;;22.71;88.19;95648.38;5096114;28;20184;-61
2022/07/14 01:24:00;;;;;;;1999.90;999.90;;;;;;;22.67;88.09;95661.72;5095733;28;20211;-63
2022/07/14 01:26:26;;;;;;;1999.90;999.90;;;;;;;22.68;88.49;95657.69;5096139;28;20208;-64
2022/07/14 01:28:51;;;;;;;1999.90;999.90;;;;;;;22.67;88.83;95670.06;5095954;28;20215;-63
2022/07/14 01:31:16;;;;;;;1999.90;999.90;;;;;;;22.65;88.60;95675.34;5095645;28;20183;-63
2022/07/14 01:33:42;;;;;;;1999.90;999.90;;;;;;;22.64;89.01;95668.22;5096257;28;20215;-63
2022/07/14 01:36:07;;;;;;;1999.90;999.90;;;;;;;22.56;88.99;95667.81;5095738;28;20216;-63
2022/07/14 01:38:33;;;;;;;1999.90;999.90;;;;;;;22.52;89.77;95656.84;5095514;28;20188;-50
2022/07/14 01:40:58;;;;;;;1999.90;999.90;;;;;;;22.52;88.98;95650.53;5095597;28;20191;-63
2022/07/14 01:43:23;;;;;;;1999.90;999.90;;;;;;;22.51;89.12;95637.88;5095667;28;20215;-63
2022/07/14 01:45:49;;;;;;;1999.90;999.90;;;;;;;22.48;89.58;95634.00;5095637;28;20278;-63
2022/07/14 01:48:14;;;;;;;1999.90;999.90;;;;;;;22.51;89.59;95639.88;5095700;28;20191;-63
2022/07/14 01:50:40;;;;;;;1999.90;999.90;;;;;;;22.51;89.46;95637.09;5095320;28;20237;-63
2022/07/14 01:53:05;;;;;;;1999.90;999.90;;;;;;;22.50;90.35;95630.00;5095631;28;20196;-64
2022/07/14 01:55:30;;;;;;;1999.90;999.90;;;;;;;22.50;89.96;95624.41;5095941;28;20187;-65
2022/07/14 01:57:56;;;;;;;1999.90;999.90;;;;;;;22.49;90.58;95623.63;5096346;28;20188;-64
2022/07/14 02:00:21;;;;;;;1999.90;999.90;;;;;;;22.45;91.35;95621.00;5098793;28;20196;-66
2022/07/14 02:02:46;;;;;;;1999.90;999.90;;;;;;;22.40;91.40;95621.66;5099062;28;20199;-67
2022/07/14 02:05:12;;;;;;;1999.90;999.90;;;;;;;22.35;91.99;95625.09;5099300;28;20683;-66
2022/07/14 02:07:37;;;;;;;1999.90;999.90;;;;;;;22.28;92.22;95622.66;5098889;28;20187;-66
2022/07/14 02:12:48;;;;;;;1999.90;999.90;;;;;;;22.12;93.96;95611.19;5117326;28;20202;-66
2022/07/14 02:15:13;;;;;;;1999.90;999.90;;;;;;;22.09;94.59;95618.47;5098792;28;20187;-65
2022/07/14 02:17:38;;;;;;;1999.90;999.90;;;;;;;22.10;94.72;95614.44;5115473;28;20188;-50
2022/07/14 02:20:05;;;;;;;1999.90;999.90;;;;;;;22.05;94.00;95629.00;5098308;28;20269;-49
2022/07/14 02:22:30;;;;;;;1999.90;999.90;;;;;;;22.00;95.06;95634.44;5098348;28;20188;-53
2022/07/14 02:24:55;;;;;;;1999.90;999.90;;;;;;;21.98;96.12;95632.13;5098291;28;20309;-52
2022/07/14 02:27:21;;;;;;;1999.90;999.90;;;;;;;21.93;96.49;95632.75;5098748;28;20275;-50
2022/07/14 02:29:47;;;;;;;1999.90;999.90;;;;;;;21.89;96.29;95631.41;5098489;28;20183;-51
2022/07/14 02:32:12;;;;;;;1999.90;999.90;;;;;;;21.84;97.06;95634.81;5098590;28;20196;-52
2022/07/14 02:34:37;;;;;;;1999.90;999.90;;;;;;;21.80;97.63;95634.19;5098568;28;20275;-61
2022/07/14 02:37:03;;;;;;;1999.90;999.90;;;;;;;21.74;98.01;95631.28;5098703;28;20286;-61
2022/07/14 02:39:29;;;;;;;1999.90;999.90;;;;;;;21.71;99.31;95617.53;5098394;28;20196;-62
2022/07/14 02:41:54;;;;;;;1999.90;999.90;;;;;;;21.67;99.19;95623.25;5098324;28;20274;-61
2022/07/14 02:44:19;;;;;;;1999.90;999.90;;;;;;;21.70;98.83;95624.31;5098378;28;20244;-61
2022/07/14 02:46:45;;;;;;;1999.90;999.90;;;;;;;21.68;99.29;95622.00;5098282;28;20398;-61
2022/07/14 02:49:10;;;;;;;1999.90;999.90;;;;;;;21.68;100.00;95622.00;5098173;28;20179;-61
2022/07/14 02:51:36;;;;;;;1999.90;999.90;;;;;;;21.63;100.00;95624.66;5098261;28;20629;-66
2022/07/14 02:54:01;;;;;;;1999.90;999.90;;;;;;;21.58;100.00;95634.41;5098330;28;20213;-60
2022/07/14 02:56:27;;;;;;;1999.90;999.90;;;;;;;21.52;100.00;95633.50;5098065;28;20343;-60
2022/07/14 02:58:52;;;;;;;1999.90;999.90;;;;;;;21.47;100.00;95636.94;5098441;28;20198;-61
2022/07/14 03:01:18;;;;;;;1999.90;999.90;;;;;;;21.40;100.00;95640.03;5097889;28;20187;-61
2022/07/14 03:03:43;;;;;;;1999.90;999.90;;;;;;;21.31;100.00;95626.16;5098269;28;20187;-60
2022/07/14 03:06:17;;;;;;;1999.90;999.90;;;;;;;21.26;100.00;95629.56;5097836;28;20215;-61
2022/07/14 03:08:43;;;;;;;1999.90;999.90;;;;;;;21.17;100.00;95629.59;5098043;28;20232;-61
2022/07/14 03:11:09;;;;;;;1999.90;999.90;;;;;;;21.12;100.00;95624.66;5097894;28;20195;-62
2022/07/14 03:13:35;;;;;;;1999.90;999.90;;;;;;;21.09;100.00;95620.03;5097949;28;20192;-60
2022/07/14 03:16:02;;;;;;;1999.90;999.90;;;;;;;21.02;100.00;95620.34;5097665;28;20198;-60
2022/07/14 03:18:28;;;;;;;1999.90;999.90;;;;;;;21.00;100.00;95616.50;5097851;28;20179;-61
2022/07/14 03:20:53;;;;;;;1999.90;999.90;;;;;;;20.96;100.00;95616.66;5097559;28;20237;-59
2022/07/14 03:23:20;;;;;;;1999.90;999.90;;;;;;;20.97;100.00;95618.19;5097917;28;20598;-60
2022/07/14 03:25:46;;;;;;;1999.90;999.90;;;;;;;20.98;100.00;95622.50;5097354;28;20255;-60
2022/07/14 03:28:11;;;;;;;1999.90;999.90;;;;;;;21.02;100.00;95628.66;5097683;28;20187;-61
2022/07/14 03:30:37;;;;;;;1999.90;999.90;;;;;;;21.04;100.00;95640.09;5097588;28;20566;-60
2022/07/14 03:33:03;;;;;;;1999.90;999.90;;;;;;;21.06;100.00;95637.66;5097429;28;20191;-60
2022/07/14 03:35:29;;;;;;;1999.90;999.90;;;;;;;21.08;100.00;95635.16;5097222;28;20206;-61
2022/07/14 03:37:55;;;;;;;1999.90;999.90;;;;;;;21.03;100.00;95641.34;5097336;28;20499;-61
2022/07/14 03:40:20;;;;;;;1999.90;999.90;;;;;;;21.10;100.00;95643.81;5097334;28;20183;-61
2022/07/14 03:42:46;;;;;;;1999.90;999.90;;;;;;;21.22;100.00;95637.28;5097469;28;20184;-61
2022/07/14 03:45:11;;;;;;;1999.90;999.90;;;;;;;21.35;100.00;95632.31;5097450;28;20208;-61
2022/07/14 03:47:36;;;;;;;1999.90;999.90;;;;;;;21.44;100.00;95623.97;5097134;28;20288;-47
2022/07/14 03:50:02;;;;;;;1999.90;999.90;;;;;;;21.45;100.00;95619.19;5097277;28;20176;-65
2022/07/14 03:52:28;;;;;;;1999.90;999.90;;;;;;;21.46;100.00;95621.47;5097071;28;20184;-66
2022/07/14 03:54:53;;;;;;;1999.90;999.90;;;;;;;21.46;100.00;95621.47;5097341;28;20187;-65
2022/07/14 03:57:18;;;;;;;1999.90;999.90;;;;;;;21.45;100.00;95619.94;5114205;28;20199;-65
2022/07/14 03:59:44;;;;;;;1999.90;999.90;;;;;;;21.42;100.00;95615.31;5097112;28;20226;-65
2022/07/14 04:02:10;;;;;;;1999.90;999.90;;;;;;;21.53;100.00;95614.81;5097446;28;20196;-65
2022/07/14 04:04:36;;;;;;;1999.90;999.90;;;;;;;21.73;99.80;95609.50;5097300;28;20213;-60
2022/07/14 04:07:02;;;;;;;1999.90;999.90;;;;;;;21.81;98.20;95619.84;5096944;28;20252;-60
2022/07/14 04:09:27;;;;;;;1999.90;999.90;;;;;;;21.80;97.67;95620.28;5096926;28;20179;-69
2022/07/14 04:11:53;;;;;;;1999.90;999.90;;;;;;;21.79;97.72;95622.31;5096865;28;20247;-66
2022/07/14 04:14:18;;;;;;;1999.90;999.90;;;;;;;21.83;97.52;95624.91;5096945;28;20176;-66
2022/07/14 04:16:43;;;;;;;1999.90;999.90;;;;;;;21.89;97.37;95632.16;5096946;28;20186;-66
2022/07/14 04:19:09;;;;;;;1999.90;999.90;;;;;;;21.93;96.63;95643.88;5096325;28;20624;-66
2022/07/14 04:21:36;;;;;;;1999.90;999.90;;;;;;;22.03;95.04;95650.94;5096080;28;20304;-66
2022/07/14 04:24:01;;;;;;;1999.90;999.90;;;;;;;22.17;95.21;95649.47;5096706;28;20210;-61
2022/07/14 04:26:27;;;;;;;1999.90;999.90;;;;;;;22.84;92.85;95640.53;5114566;28;20200;-60
2022/07/14 04:28:52;;;;;;;1999.90;999.90;;;;;;;23.71;88.48;95641.38;5097069;28;20190;-60
2022/07/14 04:31:17;;;;;;;1999.90;999.90;;;;;;;24.03;84.19;95651.56;5096799;28;20195;-61
2022/07/14 04:33:43;;;;;;;1999.90;999.90;;;;;;;24.03;82.81;95648.78;5096337;28;20187;-61
2022/07/14 04:36:09;;;;;;;1999.90;999.90;;;;;;;24.59;80.20;95658.72;5096731;28;20196;-62
2022/07/14 04:38:34;;;;;;;1999.90;999.90;;;;;;;25.46;75.57;95654.69;5096435;28;20323;-61
2022/07/14 04:41:00;;;;;;;1999.90;999.90;;;;;;;26.24;71.57;95646.47;5096234;28;20207;-61
2022/07/14 04:43:26;;;;;;;1999.90;999.90;;;;;;;27.22;66.32;95656.69;5096543;28;20210;-61
2022/07/14 04:45:52;;;;;;;1999.90;999.90;;;;;;;27.98;62.14;95649.66;5096305;28;20231;-60
2022/07/14 04:48:17;;;;;;;1999.90;999.90;;;;;;;28.57;58.72;95654.19;5096269;28;20191;-61
2022/07/14 04:53:27;;;;;;;1999.90;999.90;;;;;;;29.23;54.37;95660.38;5114830;28;20207;-62
2022/07/14 04:55:53;;;;;;;1999.90;999.90;;;;;;;29.81;52.76;95658.25;5096389;28;20192;-62
2022/07/14 04:58:19;;;;;;;1999.90;999.90;;;;;;;29.91;51.82;95651.03;5096106;28;20223;-61
2022/07/14 05:00:44;;;;;;;1999.90;999.90;;;;;;;29.13;52.98;95649.97;5096359;28;20188;-67
2022/07/14 05:03:10;;;;;;;1999.90;999.90;;;;;;;28.53;55.82;95653.69;5095913;28;20198;-62
2022/07/14 05:05:35;;;;;;;1999.90;999.90;;;;;;;27.81;57.87;95657.28;5095838;28;20214;-62
2022/07/14 05:08:01;;;;;;;1999.90;999.90;;;;;;;27.28;61.03;95660.25;5095987;28;20307;-63
2022/07/14 05:10:26;;;;;;;1999.90;999.90;;;;;;;26.96;62.55;95650.44;5096266;28;20187;-62
2022/07/14 05:12:52;;;;;;;1999.90;999.90;;;;;;;26.81;63.58;95658.25;5096415;28;20280;-62
2022/07/14 05:15:17;;;;;;;1999.90;999.90;;;;;;;26.57;64.87;95645.88;5095831;28;20180;-62
2022/07/14 05:17:44;;;;;;;1999.90;999.90;;;;;;;26.74;65.79;95655.97;5096199;28;20179;-62
2022/07/14 05:20:10;;;;;;;1999.90;999.90;;;;;;;26.86;64.99;95657.53;5096074;28;20214;-52
2022/07/14 05:22:40;;;;;;;1999.90;999.90;;;;;;;26.84;64.90;95657.25;5095729;28;20193;-60
2022/07/14 05:25:10;;;;;;;1999.90;999.90;;;;;;;26.82;64.45;95661.84;5095822;28;20222;-59
2022/07/14 05:27:39;;;;;;;1999.90;999.90;;;;;;;26.93;64.31;95662.66;5096253;28;20224;-60
2022/07/14 05:30:09;;;;;;;1999.90;999.90;;;;;;;27.06;64.21;95665.00;5113514;28;20241;-60
2022/07/14 05:32:36;;;;;;;1999.90;999.90;;;;;;;27.56;62.29;95668.72;5097397;28;20188;-61
2022/07/14 05:35:02;;;;;;;1999.90;999.90;;;;;;;27.13;62.50;95665.28;5099046;28;20290;-61
2022/07/14 05:37:27;;;;;;;1999.90;999.90;;;;;;;27.46;61.49;95667.47;5099195;28;20188;-53
2022/07/14 05:39:53;;;;;;;1999.90;999.90;;;;;;;28.44;58.78;95671.59;5099112;28;20180;-66
2022/07/14 05:42:22;;;;;;;1999.90;999.90;;;;;;;29.47;55.06;95677.41;5099118;28;20203;-66
2022/07/14 05:44:48;;;;;;;1999.90;999.90;;;;;;;30.78;50.16;95676.94;5099024;28;20188;-65
2022/07/14 05:47:13;;;;;;;1999.90;999.90;;;;;;;31.81;46.76;95669.75;5098791;28;20192;-66
2022/07/14 05:49:40;;;;;;;1999.90;999.90;;;;;;;32.51;44.44;95669.88;5099042;28;20274;-66
2022/07/14 05:52:05;;;;;;;1999.90;999.90;;;;;;;32.93;42.61;95659.63;5099712;28;20183;-66
2022/07/14 05:54:31;;;;;;;1999.90;999.90;;;;;;;33.80;40.93;95668.31;5098766;28;20186;-65
2022/07/14 05:56:57;;;;;;;1999.90;999.90;;;;;;;34.32;38.52;95660.94;5098931;28;20179;-52
2022/07/14 05:59:22;;;;;;;1999.90;999.90;;;;;;;33.64;39.14;95655.28;5098891;28;20184;-66
2022/07/14 06:01:48;;;;;;;1999.90;999.90;;;;;;;33.03;40.09;95652.97;5098876;28;20183;-64
2022/07/14 06:04:13;;;;;;;1999.90;999.90;;;;;;;32.71;40.38;95649.47;5098773;28;20210;-68
2022/07/14 06:06:38;;;;;;;1999.90;999.90;;;;;;;33.44;38.89;95650.34;5098767;28;20203;-66
2022/07/14 06:09:04;;;;;;;1999.90;999.90;;;;;;;33.59;38.63;95656.19;5098527;28;20187;-65
2022/07/14 06:11:29;;;;;;;1999.90;999.90;;;;;;;34.03;37.99;95656.50;5098681;28;20282;-67
2022/07/14 06:13:55;;;;;;;1999.90;999.90;;;;;;;34.64;36.37;95653.69;5098847;28;20194;-66
2022/07/14 06:16:21;;;;;;;1999.90;999.90;;;;;;;34.37;35.95;95657.25;5098545;28;20240;-63
2022/07/14 06:18:46;;;;;;;1999.90;999.90;;;;;;;33.81;36.35;95652.84;5098024;28;20180;-63
2022/07/14 06:21:11;;;;;;;1999.90;999.90;;;;;;;33.51;36.99;95652.50;5098223;28;20203;-63
2022/07/14 06:23:37;;;;;;;1999.90;999.90;;;;;;;34.71;33.51;95646.53;5098239;28;20194;-62
2022/07/14 06:26:11;;;;;;;1999.90;999.90;;;;;;;35.36;32.84;95648.88;5098277;28;20256;-63
2022/07/14 06:28:37;;;;;;;1999.90;999.90;;;;;;;35.94;31.26;95646.06;5098812;28;20179;-63
2022/07/14 06:31:04;;;;;;;1999.90;999.90;;;;;;;36.24;31.28;95634.75;5098466;28;20210;-63
2022/07/14 06:33:29;;;;;;;1999.90;999.90;;;;;;;36.73;29.62;95643.72;5098357;28;20183;-62
2022/07/14 06:35:55;;;;;;;1999.90;999.90;;;;;;;37.08;29.90;95637.00;5098103;28;20329;-53
2022/07/14 06:38:20;;;;;;;1999.90;999.90;;;;;;;37.50;29.14;95635.19;5098167;28;20187;-49
2022/07/14 06:40:45;;;;;;;1999.90;999.90;;;;;;;37.64;28.68;95635.72;5098229;28;20207;-52
2022/07/14 06:43:11;;;;;;;1999.90;999.90;;;;;;;38.40;27.02;95631.84;5097408;28;20226;-53
2022/07/14 06:45:36;;;;;;;1999.90;999.90;;;;;;;38.79;27.33;95635.94;5097660;28;20195;-55
2022/07/14 06:48:02;;;;;;;1999.90;999.90;;;;;;;39.86;25.17;95623.53;5098461;28;20272;-57
2022/07/14 06:50:27;;;;;;;1999.90;999.90;;;;;;;39.84;24.79;95625.47;5098060;28;20188;-54
2022/07/14 06:52:53;;;;;;;1999.90;999.90;;;;;;;39.55;25.10;95621.63;5098300;28;20251;-61
2022/07/14 06:55:18;;;;;;;1999.90;999.90;;;;;;;38.69;26.08;95624.41;5098054;28;20179;-61
2022/07/14 06:57:44;;;;;;;1999.90;999.90;;;;;;;37.67;26.25;95621.06;5097847;28;20286;-61
2022/07/14 07:00:10;;;;;;;1999.90;999.90;;;;;;;36.62;28.48;95612.72;5097767;28;20253;-60
2022/07/14 07:02:36;;;;;;;1999.90;999.90;;;;;;;36.07;28.97;95621.06;5098218;28;20249;-59
2022/07/14 07:07:50;;;;;;;1999.90;999.90;;;;;;;35.53;30.55;95606.47;5116486;28;20195;-59
2022/07/14 07:10:16;;;;;;;1999.90;999.90;;;;;;;36.14;30.58;95602.47;5097511;28;20176;-53
2022/07/14 07:12:41;;;;;;;1999.90;999.90;;;;;;;37.05;28.65;95603.19;5097609;28;20180;-59
2022/07/14 07:15:07;;;;;;;1999.90;999.90;;;;;;;38.36;27.21;95602.94;5098103;28;20271;-59
2022/07/14 07:17:33;;;;;;;1999.90;999.90;;;;;;;37.39;27.24;95609.94;5097423;28;20187;-59
2022/07/14 07:19:58;;;;;;;1999.90;999.90;;;;;;;36.52;28.51;95597.53;5097789;28;20196;-59
2022/07/14 07:22:23;;;;;;;1999.90;999.90;;;;;;;36.42;28.57;95605.91;5097112;28;20184;-60
2022/07/14 07:24:49;;;;;;;1999.90;999.90;;;;;;;35.84;29.47;95613.81;5097551;28;20198;-59
2022/07/14 07:27:15;;;;;;;1999.90;999.90;;;;;;;37.20;28.22;95606.78;5097236;28;20179;-50
2022/07/14 07:29:40;;;;;;;1999.90;999.90;;;;;;;38.37;26.90;95604.47;5097447;28;20180;-60
2022/07/14 07:32:07;;;;;;;1999.90;999.90;;;;;;;39.39;25.95;95603.16;5097020;28;20243;-62
2022/07/14 07:34:36;;;;;;;1999.90;999.90;;;;;;;40.09;25.16;95595.31;5097095;28;20232;-60
2022/07/14 07:37:02;;;;;;;1999.90;999.90;;;;;;;40.72;24.98;95595.31;5097494;28;20207;-61
2022/07/14 07:39:28;;;;;;;1999.90;999.90;;;;;;;41.79;24.20;95594.19;5097177;28;20230;-60
2022/07/14 07:41:55;;;;;;;1999.90;999.90;;;;;;;41.80;23.41;95594.94;5097275;28;20176;-60
2022/07/14 07:44:21;;;;;;;1999.90;999.90;;;;;;;42.83;22.26;95600.19;5097737;28;20212;-61
2022/07/14 07:46:46;;;;;;;1999.90;999.90;;;;;;;42.92;22.73;95597.25;5097259;28;20233;-64
2022/07/14 07:49:12;;;;;;;1999.90;999.90;;;;;;;41.15;22.90;95583.63;5097198;28;20191;-63
2022/07/14 07:51:38;;;;;;;1999.90;999.90;;;;;;;39.84;23.84;95589.03;5096922;28;20180;-62
2022/07/14 07:54:05;;;;;;;1999.90;999.90;;;;;;;39.93;24.17;95593.28;5097040;28;20241;-63
2022/07/14 07:56:31;;;;;;;1999.90;999.90;;;;;;;40.93;23.51;95578.31;5095915;28;20263;-62
2022/07/14 07:58:56;;;;;;;1999.90;999.90;;;;;;;41.52;22.72;95582.16;5097391;28;20203;-62
2022/07/14 08:01:22;;;;;;;1999.90;999.90;;;;;;;41.80;22.54;95571.97;5096776;28;20180;-61
2022/07/14 08:03:47;;;;;;;1999.90;999.90;;;;;;;41.95;21.44;95571.66;5096834;28;20229;-62
2022/07/14 08:06:12;;;;;;;1999.90;999.90;;;;;;;43.08;19.61;95563.88;5096553;28;20207;-50
2022/07/14 08:08:38;;;;;;;1999.90;999.90;;;;;;;43.27;20.02;95568.72;5096631;28;20183;-48
2022/07/14 08:11:03;;;;;;;1999.90;999.90;;;;;;;42.82;20.27;95567.78;5096491;28;20176;-47
2022/07/14 08:13:29;;;;;;;1999.90;999.90;;;;;;;42.98;20.70;95568.91;5097274;28;20188;-46
2022/07/14 08:15:57;;;;;;;1999.90;999.90;;;;;;;43.96;19.94;95564.00;5097109;28;20180;-49
2022/07/14 08:18:23;;;;;;;1999.90;999.90;;;;;;;44.29;19.59;95567.59;5096720;28;20186;-46
2022/07/14 08:20:49;;;;;;;1999.90;999.90;;;;;;;43.57;19.94;95565.75;5096239;28;20199;-46
2022/07/14 08:23:15;;;;;;;1999.90;999.90;;;;;;;43.94;19.48;95560.22;5096487;28;20184;-47
2022/07/14 08:25:40;;;;;;;1999.90;999.90;;;;;;;45.10;18.38;95552.38;5096326;28;20210;-62
2022/07/14 08:28:05;;;;;;;1999.90;999.90;;;;;;;44.46;17.86;95552.78;5114523;28;20197;-62
2022/07/14 08:30:31;;;;;;;1999.90;999.90;;;;;;;44.63;18.08;95540.13;5096373;28;20252;-62
2022/07/14 08:32:56;;;;;;;1999.90;999.90;;;;;;;43.48;19.60;95543.53;5096266;28;20240;-62
2022/07/14 08:35:23;;;;;;;1999.90;999.90;;;;;;;42.51;20.95;95541.19;5114489;28;20185;-61
2022/07/14 08:37:50;;;;;;;1999.90;999.90;;;;;;;43.07;20.61;95539.34;5114426;28;20195;-61
2022/07/14 08:40:20;;;;;;;1999.90;999.90;;;;;;;41.45;20.27;95527.75;5096065;28;20180;-60
2022/07/14 08:42:51;;;;;;;1999.90;999.90;;;;;;;40.53;20.81;95524.31;5096521;28;20286;-54
2022/07/14 08:45:18;;;;;;;1999.90;999.90;;;;;;;41.13;20.86;95528.22;5096802;28;20242;-48
2022/07/14 08:47:44;;;;;;;1999.90;999.90;;;;;;;42.34;20.17;95524.19;5096352;28;20282;-46
2022/07/14 08:50:13;;;;;;;1999.90;999.90;;;;;;;42.54;20.21;95522.72;5114289;28;20207;-46
2022/07/14 08:52:39;;;;;;;1999.90;999.90;;;;;;;43.52;18.89;95517.16;5096204;28;20240;-48
2022/07/14 08:55:10;;;;;;;1999.90;999.90;;;;;;;43.79;18.71;95526.84;5096705;28;20215;-46
2022/07/14 08:57:37;;;;;;;1999.90;999.90;;;;;;;43.91;18.03;95516.13;5096580;28;20199;-45
2022/07/14 09:00:11;;;;;;;1999.90;999.90;;;;;;;43.69;18.07;95523.31;5096094;28;20219;-50
2022/07/14 09:02:37;;;;;;;1999.90;999.90;;;;;;;43.90;18.26;95529.03;5096676;28;20236;-60
2022/07/14 09:05:03;;;;;;;1999.90;999.90;;;;;;;43.39;18.32;95524.22;5096033;28;20210;-61
2022/07/14 09:07:37;;;;;;;1999.90;999.90;;;;;;;43.60;18.36;95515.56;5096116;28;20272;-60
2022/07/14 09:10:10;;;;;;;1999.90;999.90;;;;;;;43.22;18.33;95515.88;5096287;28;20183;-60
2022/07/14 09:12:37;;;;;;;1999.90;999.90;;;;;;;43.16;17.91;95515.50;5095955;28;20191;-60
2022/07/14 09:17:59;;;;;;;1999.90;999.90;;;;;;;44.34;17.15;95508.03;5114604;28;20195;-48
2022/07/14 09:20:28;;;;;;;1999.90;999.90;;;;;;;44.41;17.32;95499.13;5095875;28;20262;-61
2022/07/14 09:22:56;;;;;;;1999.90;999.90;;;;;;;44.48;16.85;95498.13;5095971;28;20218;-61
2022/07/14 09:25:22;;;;;;;1999.90;999.90;;;;;;;44.15;16.58;95499.59;5095581;28;20204;-62
2022/07/14 09:27:48;;;;;;;1999.90;999.90;;;;;;;44.17;16.86;95502.63;5095629;28;20183;-61
2022/07/14 09:30:14;;;;;;;1999.90;999.90;;;;;;;44.60;17.04;95494.50;5095754;28;20187;-61
2022/07/14 09:33:00;;;;;;;1999.90;999.90;;;;;;;44.00;16.85;95500.88;5095861;28;20191;-61
2022/07/14 09:35:33;;;;;;;1999.90;999.90;;;;;;;43.85;17.38;95492.72;5095762;28;20180;-61
2022/07/14 09:37:58;;;;;;;1999.90;999.90;;;;;;;43.76;18.01;95492.81;5096065;28;20188;-62
2022/07/14 09:40:29;;;;;;;1999.90;999.90;;;;;;;44.17;17.23;95486.06;5095545;28;20172;-61
2022/07/14 09:42:59;;;;;;;1999.90;999.90;;;;;;;43.78;17.18;95495.78;5095694;28;20191;-63
2022/07/14 09:45:36;;;;;;;1999.90;999.90;;;;;;;44.44;16.87;95474.81;5095502;28;20200;-62
2022/07/14 09:48:11;;;;;;;1999.90;999.90;;;;;;;44.66;16.97;95478.31;5095352;28;20242;-62
2022/07/14 09:51:00;;;;;;;1999.90;999.90;;;;;;;43.94;17.80;95474.53;5095353;28;20282;-66
2022/07/14 09:53:33;;;;;;;1999.90;999.90;;;;;;;44.32;18.30;95456.75;5095835;28;20207;-59
2022/07/14 09:56:10;;;;;;;1999.90;999.90;;;;;;;43.92;18.57;95465.78;5095470;28;20225;-58
2022/07/14 09:58:56;;;;;;;1999.90;999.90;;;;;;;44.13;17.82;95456.28;5095109;28;20211;-65
2022/07/14 10:01:24;;;;;;;1999.90;999.90;;;;;;;43.70;16.87;95449.97;5095789;28;20183;-68
2022/07/14 10:03:54;;;;;;;1999.90;999.90;;;;;;;43.08;17.45;95460.28;5095247;28;20188;-71
2022/07/14 10:06:21;;;;;;;1999.90;999.90;;;;;;;43.42;17.60;95447.38;5095257;28;20196;-70
2022/07/14 10:08:52;;;;;;;1999.90;999.90;;;;;;;43.54;17.22;95443.16;5095304;28;20180;-60
2022/07/14 10:11:18;;;;;;;1999.90;999.90;;;;;;;42.93;18.40;95449.16;5095553;28;20221;-70
2022/07/14 10:13:44;;;;;;;1999.90;999.90;;;;;;;43.03;18.12;95435.50;5095217;28;20183;-54
2022/07/14 10:16:10;;;;;;;1999.90;999.90;;;;;;;42.71;18.12;95441.22;5095358;28;20198;-65
2022/07/14 10:18:35;;;;;;;1999.90;999.90;;;;;;;42.79;19.13;95436.75;5095283;28;20210;-66
2022/07/14 10:21:04;;;;;;;1999.90;999.90;;;;;;;42.32;20.35;95431.31;5098365;28;20207;-66
2022/07/14 10:23:30;;;;;;;1999.90;999.90;;;;;;;42.96;19.31;95429.94;5098388;28;20225;-66
2022/07/14 10:25:58;;;;;;;1999.90;999.90;;;;;;;43.67;17.61;95428.16;5098652;28;20228;-70
2022/07/14 10:28:24;;;;;;;1999.90;999.90;;;;;;;43.95;17.56;95429.22;5098376;28;20221;-65
2022/07/14 10:31:28;;;;;;;1999.90;999.90;;;;;;;43.34;16.96;95429.56;5098502;28;20183;-63
2022/07/14 10:34:06;;;;;;;1999.90;999.90;;;;;;;44.15;17.38;95419.66;5054009;28;20185;-63
2022/07/14 10:37:03;;;;;;;1999.90;999.90;;;;;;;43.19;17.67;95427.94;5092130;28;20222;-59
2022/07/14 10:39:47;;;;;;;1999.90;999.90;;;;;;;42.89;16.92;95414.38;5098479;28;20180;-62
2022/07/14 10:42:37;;;;;;;1999.90;999.90;;;;;;;42.91;16.88;95414.53;5098781;28;20183;-61
2022/07/14 10:45:03;;;;;;;1999.90;999.90;;;;;;;43.11;17.32;95418.75;5098175;28;20188;-61
2022/07/14 10:47:48;;;;;;;1999.90;999.90;;;;;;;42.65;17.25;95421.44;5098735;28;20210;-62
2022/07/14 10:50:19;;;;;;;1999.90;999.90;;;;;;;42.13;18.30;95423.56;5098149;28;20172;-60
2022/07/14 10:52:50;;;;;;;1999.90;999.90;;;;;;;42.35;18.82;95407.88;5098243;28;20192;-61
2022/07/14 10:55:16;;;;;;;1999.90;999.90;;;;;;;42.22;18.44;95405.50;5097936;28;20195;-62
2022/07/14 10:57:59;;;;;;;1999.90;999.90;;;;;;;41.76;18.76;95405.88;5098180;28;20184;-61
2022/07/14 11:00:43;;;;;;;1999.90;999.90;;;;;;;41.53;18.76;95396.31;5098383;28;20237;-61
2022/07/14 11:03:45;;;;;;;1999.90;999.90;;;;;;;41.53;18.59;95402.81;5097865;28;20186;-60